Time;durP1;ratioP1;P1;durP2;ratioP2;P2;SDS_P1;SDS_P2;PMS_P1;PMS_P2;Temp;Humidity;BMP_temperature;BMP_pressure;BME280_temperature;BME280_humidity;BME280_pressure;Samples;Min_cycle;Max_cycle;Signal;HPM_P1;HPM_P2
2021/10/28 00:14:29;;;;;;;18.55;15.30;;;9.60;99.90;;;;;;5037423;28;20452;-83
2021/10/28 00:16:58;;;;;;;18.85;15.60;;;9.60;99.90;;;;;;5037284;28;20022;-83
2021/10/28 00:19:24;;;;;;;17.17;14.50;;;9.60;99.90;;;;;;5038168;28;20441;-84
2021/10/28 00:21:49;;;;;;;19.35;15.48;;;9.60;99.90;;;;;;5035738;28;20037;-83
2021/10/28 00:24:16;;;;;;;16.83;14.55;;;10.10;99.90;;;;;;5035276;28;20586;-84
2021/10/28 00:26:47;;;;;;;22.33;15.68;;;10.20;99.90;;;;;;5036595;28;20025;-83
2021/10/28 00:29:16;;;;;;;16.98;14.73;;;10.10;99.90;;;;;;5037493;28;20041;-84
2021/10/28 00:31:43;;;;;;;19.33;14.60;;;9.60;99.90;;;;;;5036837;28;20028;-83
2021/10/28 00:34:10;;;;;;;17.25;13.88;;;9.70;99.90;;;;;;5037813;28;20029;-84
2021/10/28 00:36:37;;;;;;;15.88;13.07;;;9.90;99.90;;;;;;5034188;28;20022;-84
2021/10/28 00:39:08;;;;;;;18.08;13.90;;;10.20;99.90;;;;;;5035236;28;20077;-83
2021/10/28 00:41:36;;;;;;;16.70;13.85;;;10.10;99.90;;;;;;5037767;28;20028;-84
2021/10/28 00:44:03;;;;;;;17.52;13.75;;;9.60;99.90;;;;;;5036923;28;20048;-83
2021/10/28 00:46:32;;;;;;;16.88;13.95;;;9.60;99.90;;;;;;5036623;28;20025;-84
2021/10/28 00:48:59;;;;;;;17.73;14.00;;;9.90;99.90;;;;;;5036457;28;20029;-84
2021/10/28 00:51:27;;;;;;;16.95;14.35;;;9.80;99.90;;;;;;5033202;28;20070;-84
2021/10/28 00:53:55;;;;;;;17.23;14.43;;;9.80;99.90;;;;;;5036586;28;20026;-83
2021/10/28 00:56:23;;;;;;;18.10;14.05;;;9.60;99.90;;;;;;5036859;28;20055;-83
2021/10/28 00:58:50;;;;;;;17.15;13.80;;;9.60;99.90;;;;;;5036967;28;20049;-84
2021/10/28 01:01:16;;;;;;;16.08;14.38;;;9.70;99.90;;;;;;5036060;28;20017;-84
2021/10/28 01:03:42;;;;;;;16.02;13.20;;;10.10;99.90;;;;;;5033565;28;20043;-84
2021/10/28 01:06:09;;;;;;;15.80;13.27;;;9.60;99.90;;;;;;5034939;28;20106;-84
2021/10/28 01:08:39;;;;;;;15.27;13.18;;;10.00;99.90;;;;;;5036793;28;20099;-83
2021/10/28 01:11:06;;;;;;;15.63;13.00;;;10.20;99.90;;;;;;5036781;28;20065;-83
2021/10/28 01:13:34;;;;;;;16.50;14.27;;;9.60;99.90;;;;;;5036599;28;20100;-84
2021/10/28 01:16:01;;;;;;;19.77;14.23;;;9.70;99.90;;;;;;5036811;28;20124;-83
2021/10/28 01:18:28;;;;;;;17.27;13.15;;;9.60;99.90;;;;;;5032371;28;20045;-84
2021/10/28 01:20:55;;;;;;;13.68;12.23;;;9.70;99.90;;;;;;5035797;28;20071;-84
2021/10/28 01:23:24;;;;;;;17.45;14.43;;;9.50;99.90;;;;;;5036849;28;20033;-84
2021/10/28 01:25:55;;;;;;;16.20;13.25;;;9.60;99.90;;;;;;5036954;28;20519;-83
2021/10/28 01:28:23;;;;;;;16.45;13.25;;;9.80;99.90;;;;;;5036034;28;20116;-83
2021/10/28 01:30:51;;;;;;;16.10;13.60;;;9.50;99.90;;;;;;5034640;28;20021;-84
2021/10/28 01:33:18;;;;;;;16.95;13.35;;;10.10;99.90;;;;;;5033340;28;20029;-83
2021/10/28 01:35:44;;;;;;;15.45;13.25;;;10.00;99.90;;;;;;5035795;28;20029;-83
2021/10/28 01:38:11;;;;;;;16.17;13.73;;;9.50;99.90;;;;;;5036807;28;20065;-83
2021/10/28 01:40:39;;;;;;;18.77;14.00;;;10.00;99.90;;;;;;5036714;28;20026;-83
2021/10/28 01:43:05;;;;;;;16.02;12.52;;;9.60;99.90;;;;;;5035912;28;20029;-83
2021/10/28 01:45:32;;;;;;;17.30;14.18;;;9.90;99.90;;;;;;5032280;28;20041;-84
2021/10/28 01:47:59;;;;;;;15.68;12.75;;;9.50;99.90;;;;;;5035976;28;20024;-84
2021/10/28 01:50:24;;;;;;;16.13;12.88;;;9.50;99.90;;;;;;5036220;28;20041;-83
2021/10/28 01:52:50;;;;;;;16.10;13.15;;;9.50;99.90;;;;;;5036591;28;20173;-84
2021/10/28 01:55:16;;;;;;;18.58;13.40;;;9.90;99.90;;;;;;5036188;28;20036;-84
2021/10/28 01:57:42;;;;;;;16.00;13.10;;;9.80;99.90;;;;;;5033075;28;20026;-83
2021/10/28 02:00:13;;;;;;;13.75;12.30;;;9.80;99.90;;;;;;5033904;28;20032;-84
2021/10/28 02:02:41;;;;;;;17.02;12.57;;;9.50;99.90;;;;;;5033612;28;20021;-83
2021/10/28 02:05:09;;;;;;;15.65;12.18;;;9.90;99.90;;;;;;5036108;28;20044;-84
2021/10/28 02:07:35;;;;;;;14.90;12.45;;;9.90;99.90;;;;;;5036080;28;20575;-83
2021/10/28 02:10:01;;;;;;;18.25;12.98;;;9.40;99.90;;;;;;5035993;28;20548;-83
2021/10/28 02:12:26;;;;;;;18.17;13.27;;;9.90;99.90;;;;;;5031181;28;20025;-84
2021/10/28 02:14:52;;;;;;;15.32;12.80;;;9.40;99.90;;;;;;5035709;28;20034;-84
2021/10/28 02:17:18;;;;;;;17.55;13.02;;;9.80;99.90;;;;;;5040140;28;20033;-84
2021/10/28 02:19:43;;;;;;;14.75;12.38;;;9.80;99.90;;;;;;5040097;28;20041;-84
2021/10/28 02:22:09;;;;;;;16.38;13.00;;;9.80;99.90;;;;;;5039553;28;20112;-84
2021/10/28 02:24:34;;;;;;;18.13;13.65;;;9.40;99.90;;;;;;5036109;28;20421;-83
2021/10/28 02:27:01;;;;;;;15.98;12.82;;;9.40;99.90;;;;;;5019946;28;20156;-83
2021/10/28 02:29:27;;;;;;;15.68;12.00;;;9.80;99.90;;;;;;5041009;28;20033;-84
2021/10/28 02:31:53;;;;;;;14.63;11.68;;;9.90;99.90;;;;;;5039809;28;20363;-83
2021/10/28 02:34:18;;;;;;;14.50;11.75;;;9.80;99.90;;;;;;5039779;28;20083;-83
2021/10/28 02:36:44;;;;;;;14.40;11.95;;;9.30;99.90;;;;;;5037130;28;20063;-83
2021/10/28 02:39:10;;;;;;;15.98;12.38;;;9.70;99.90;;;;;;5037127;28;20026;-84
2021/10/28 02:41:37;;;;;;;13.68;11.63;;;9.80;99.90;;;;;;5039415;28;20382;-83
2021/10/28 02:44:03;;;;;;;14.52;11.43;;;9.50;99.90;;;;;;5039321;28;20128;-84
2021/10/28 02:46:29;;;;;;;13.88;11.77;;;9.40;99.90;;;;;;5039255;28;20018;-83
2021/10/28 02:48:55;;;;;;;14.63;12.02;;;9.70;99.90;;;;;;5038332;28;20025;-84
2021/10/28 02:51:20;;;;;;;15.65;11.77;;;9.40;99.90;;;;;;5036183;28;20028;-84
2021/10/28 02:53:46;;;;;;;12.93;11.32;;;9.40;99.90;;;;;;5038729;28;20452;-83
2021/10/28 02:56:12;;;;;;;14.55;11.10;;;9.40;99.90;;;;;;5038884;28;20080;-83
2021/10/28 02:58:38;;;;;;;14.55;11.88;;;9.30;99.90;;;;;;5039444;28;20025;-84
2021/10/28 03:01:04;;;;;;;16.30;11.98;;;9.30;99.90;;;;;;5038821;28;20025;-84
2021/10/28 03:03:30;;;;;;;12.23;10.95;;;9.30;99.90;;;;;;5034711;28;20452;-84
2021/10/28 03:05:56;;;;;;;15.00;11.65;;;9.30;99.90;;;;;;5046387;28;20025;-83
2021/10/28 03:08:21;;;;;;;14.93;11.82;;;9.80;99.90;;;;;;5039028;28;20505;-84
2021/10/28 03:10:47;;;;;;;14.38;11.43;;;9.60;99.90;;;;;;5038735;28;20402;-84
2021/10/28 03:13:17;;;;;;;14.30;11.45;;;9.80;99.90;;;;;;5039043;28;20063;-84
2021/10/28 03:15:43;;;;;;;15.98;11.68;;;9.90;99.90;;;;;;5036024;28;20053;-84
2021/10/28 03:26:27;;;;;;;14.75;12.40;;;9.30;99.90;;;;;;5040055;28;20028;-83
2021/10/28 03:28:53;;;;;;;15.13;11.73;;;9.30;99.90;;;;;;5020596;28;20120;-84
2021/10/28 03:31:19;;;;;;;14.13;12.40;;;9.70;99.90;;;;;;5038525;28;20025;-83
2021/10/28 03:33:47;;;;;;;15.40;12.10;;;9.20;99.90;;;;;;5035966;28;20108;-83
2021/10/28 03:36:20;;;;;;;14.82;12.10;;;9.20;99.90;;;;;;5036159;28;20025;-83
2021/10/28 03:39:02;;;;;;;18.35;12.50;;;9.20;99.90;;;;;;5035977;28;20091;-83
2021/10/28 04:08:19;;;;;;;14.52;11.50;;;9.40;99.90;;;;;;5037597;28;20073;-84
2021/10/28 04:29:52;;;;;;;13.70;11.18;;;9.30;99.90;;;;;;4989909;28;20553;-84
2021/10/28 04:32:17;;;;;;;20.15;14.38;;;9.80;99.90;;;;;;4987233;28;20042;-84
2021/10/28 04:34:44;;;;;;;14.55;11.98;;;9.40;99.90;;;;;;4987530;28;20034;-83
2021/10/28 04:37:10;;;;;;;13.98;11.52;;;9.70;99.90;;;;;;4986554;28;20429;-84
2021/10/28 04:39:36;;;;;;;15.80;11.68;;;9.10;99.90;;;;;;4991206;28;20204;-84
2021/10/28 04:42:02;;;;;;;19.30;14.95;;;9.10;99.90;;;;;;4974641;28;20023;-83
2021/10/28 04:44:28;;;;;;;21.05;17.38;;;9.10;99.90;;;;;;4987150;28;20466;-83
2021/10/28 04:46:53;;;;;;;23.27;18.60;;;9.60;99.90;;;;;;4988037;28;20486;-84
2021/10/28 04:49:20;;;;;;;19.73;16.50;;;9.20;99.90;;;;;;4986862;28;20093;-84
2021/10/28 04:51:45;;;;;;;18.25;13.45;;;9.20;99.90;;;;;;4988917;28;20045;-84
2021/10/28 04:54:11;;;;;;;15.02;12.35;;;9.70;99.90;;;;;;4988097;28;20026;-83
2021/10/28 04:56:37;;;;;;;14.00;11.68;;;9.30;99.90;;;;;;4986783;28;20058;-84
2021/10/28 04:59:03;;;;;;;15.07;11.30;;;9.50;99.90;;;;;;5030780;28;20508;-83
2021/10/28 05:01:29;;;;;;;15.95;11.38;;;9.80;99.90;;;;;;5036615;28;20085;-84
2021/10/28 05:03:55;;;;;;;12.57;10.98;;;9.80;99.90;;;;;;5036129;28;20460;-83
2021/10/28 05:06:20;;;;;;;12.40;10.90;;;9.60;99.90;;;;;;5032714;28;20124;-84
2021/10/28 05:08:46;;;;;;;12.38;9.85;;;9.30;99.90;;;;;;5035989;28;20115;-83
2021/10/28 05:11:16;;;;;;;15.50;11.32;;;9.80;99.90;;;;;;5037335;28;20036;-84
2021/10/28 05:13:41;;;;;;;12.43;10.65;;;9.80;99.90;;;;;;5036161;28;20498;-83
2021/10/28 05:16:07;;;;;;;14.05;11.00;;;9.90;99.90;;;;;;5036402;28;20033;-84
2021/10/28 05:18:39;;;;;;;13.20;10.38;;;9.90;99.90;;;;;;5032974;28;20381;-84
2021/10/28 05:21:06;;;;;;;11.68;10.48;;;9.40;99.90;;;;;;5034108;28;20021;-82
2021/10/28 05:23:31;;;;;;;13.65;10.90;;;9.40;99.90;;;;;;5036877;28;20025;-83
2021/10/28 05:25:57;;;;;;;13.07;10.70;;;10.00;99.90;;;;;;5036300;28;20038;-83
2021/10/28 05:28:23;;;;;;;14.27;10.15;;;9.40;99.90;;;;;;5036081;28;20480;-83
2021/10/28 05:30:48;;;;;;;14.55;11.07;;;10.00;99.90;;;;;;5034560;28;20405;-83
2021/10/28 05:33:14;;;;;;;12.93;10.88;;;9.80;99.90;;;;;;5034128;28;20029;-84
2021/10/28 05:35:40;;;;;;;14.27;11.80;;;9.80;99.90;;;;;;5035650;28;20032;-84
2021/10/28 05:38:05;;;;;;;15.63;11.48;;;9.80;99.90;;;;;;5036345;28;20063;-82
2021/10/28 05:40:31;;;;;;;14.95;11.70;;;9.60;99.90;;;;;;5036690;28;20025;-85
2021/10/28 05:42:57;;;;;;;16.80;12.38;;;9.40;99.90;;;;;;5035238;28;20056;-83
2021/10/28 05:45:23;;;;;;;15.23;11.77;;;9.60;99.90;;;;;;5033184;28;20489;-83
2021/10/28 05:47:50;;;;;;;15.05;12.15;;;9.30;99.90;;;;;;5035728;28;20543;-84
2021/10/28 05:50:19;;;;;;;16.67;11.70;;;9.30;99.90;;;;;;5037203;28;20563;-83
2021/10/28 05:52:47;;;;;;;17.05;12.18;;;9.70;99.90;;;;;;5040575;28;20028;-83
2021/10/28 05:55:14;;;;;;;16.00;12.73;;;9.50;99.90;;;;;;5040169;28;20036;-84
2021/10/28 05:57:39;;;;;;;16.58;12.38;;;9.30;99.90;;;;;;5036967;28;20026;-83
2021/10/28 06:00:07;;;;;;;18.08;13.20;;;9.10;99.90;;;;;;5038694;28;20091;-83
2021/10/28 06:02:34;;;;;;;15.75;12.77;;;9.10;99.90;;;;;;5040160;28;20018;-83
2021/10/28 06:05:00;;;;;;;15.52;12.93;;;9.10;99.90;;;;;;5039806;28;20441;-83
2021/10/28 06:07:25;;;;;;;14.27;12.23;;;9.10;99.90;;;;;;5039937;28;20046;-83
2021/10/28 06:09:51;;;;;;;14.77;12.13;;;9.10;99.90;;;;;;5038661;28;20575;-84
2021/10/28 06:12:17;;;;;;;14.25;12.10;;;9.10;99.90;;;;;;5036802;28;20025;-84
2021/10/28 06:14:42;;;;;;;15.27;11.63;;;9.50;99.90;;;;;;5038905;28;20026;-83
2021/10/28 06:17:10;;;;;;;16.15;12.40;;;9.00;99.90;;;;;;5039802;28;20504;-84
2021/10/28 06:19:36;;;;;;;17.58;12.40;;;9.00;99.90;;;;;;5040202;28;20017;-84
2021/10/28 06:22:03;;;;;;;15.82;12.27;;;9.50;99.90;;;;;;5039861;28;20028;-83
2021/10/28 06:24:29;;;;;;;14.25;11.38;;;9.00;99.90;;;;;;5002338;28;20398;-82
2021/10/28 06:26:55;;;;;;;14.82;11.70;;;9.10;99.90;;;;;;5038878;28;20056;-82
2021/10/28 06:29:20;;;;;;;13.07;11.68;;;9.20;99.90;;;;;;5039103;28;20482;-84
2021/10/28 06:31:48;;;;;;;14.50;11.90;;;9.10;99.90;;;;;;5022018;28;20030;-87
2021/10/28 06:34:21;;;;;;;15.38;12.15;;;9.10;99.90;;;;;;5040863;28;20045;-86
2021/10/28 06:36:49;;;;;;;14.45;11.70;;;9.70;99.90;;;;;;5035596;28;20117;-85
2021/10/28 06:39:16;;;;;;;16.60;11.88;;;9.20;99.90;;;;;;5051858;28;20488;-86
2021/10/28 06:41:43;;;;;;;13.20;10.88;;;9.30;99.90;;;;;;5036455;28;20032;-83
2021/10/28 06:44:09;;;;;;;17.40;12.55;;;9.60;99.90;;;;;;5039377;28;20052;-87
2021/10/28 06:46:35;;;;;;;13.73;10.95;;;9.90;99.90;;;;;;5039212;28;20104;-85
2021/10/28 06:49:04;;;;;;;13.82;11.13;;;10.20;99.90;;;;;;5038768;28;20040;-83
2021/10/28 06:51:36;;;;;;;15.65;11.20;;;10.00;99.90;;;;;;5019850;28;20108;-82
2021/10/28 06:54:08;;;;;;;13.93;11.20;;;10.60;99.90;;;;;;5038529;28;20421;-82
2021/10/28 06:57:00;;;;;;;14.30;11.38;;;10.60;99.90;;;;;;5039442;28;20079;-83
2021/10/28 07:04:38;;;;;;;14.55;11.00;;;10.20;99.90;;;;;;5038873;28;20042;-84
2021/10/28 07:07:04;;;;;;;15.27;11.48;;;10.60;99.90;;;;;;5038731;28;20056;-81
2021/10/28 07:09:32;;;;;;;13.27;10.95;;;10.20;99.90;;;;;;5034709;28;20025;-84
2021/10/28 07:12:11;;;;;;;14.23;10.52;;;10.00;99.90;;;;;;5045025;28;20063;-83
2021/10/28 07:14:37;;;;;;;12.23;9.65;;;10.20;99.90;;;;;;5039535;28;20122;-82
2021/10/28 07:20:00;;;;;;;12.88;9.48;;;10.40;99.90;;;;;;5039253;28;20033;-83
2021/10/28 07:22:36;;;;;;;10.18;8.85;;;10.40;99.90;;;;;;5038551;28;20025;-84
2021/10/28 08:21:42;;;;;;;12.15;8.70;;;26.40;99.90;;;;;;5029892;28;20469;-86
2021/10/28 08:29:27;;;;;;;14.80;8.82;;;26.20;99.90;;;;;;5028136;28;20048;-84
2021/10/28 08:31:54;;;;;;;9.80;8.80;;;25.70;99.90;;;;;;5030156;28;20017;-84
2021/10/28 08:34:26;;;;;;;12.27;8.35;;;26.60;99.90;;;;;;5029761;28;20026;-84
2021/10/28 08:36:53;;;;;;;9.77;8.77;;;28.40;99.90;;;;;;5030057;28;20009;-84
2021/10/28 08:39:22;;;;;;;11.75;8.63;;;29.60;99.90;;;;;;5030040;28;20167;-85
2021/10/28 08:41:49;;;;;;;10.52;8.55;;;29.00;99.90;;;;;;5032204;28;20022;-85
2021/10/28 08:44:19;;;;;;;11.57;8.25;;;29.40;99.90;;;;;;5033951;28;20044;-84
2021/10/28 08:46:51;;;;;;;12.07;8.40;;;29.30;99.90;;;;;;5037622;28;20504;-85
2021/10/28 08:49:32;;;;;;;9.35;8.32;;;26.70;99.90;;;;;;5037481;28;20063;-85
2021/10/28 08:57:37;;;;;;;9.43;8.00;;;29.80;99.90;;;;;;5045634;28;20036;-85
2021/10/28 09:32:03;;;;;;;9.98;6.72;;;30.70;99.90;;;;;;5036638;28;20413;-85
2021/10/28 09:51:06;;;;;;;6.70;5.25;;;33.10;99.90;;;;;;5044940;28;20040;-84
2021/10/28 09:53:57;;;;;;;7.63;5.60;;;33.70;99.90;;;;;;5036415;28;20014;-85
2021/10/28 09:59:25;;;;;;;5.65;5.03;;;34.60;99.90;;;;;;5036233;28;20040;-85
2021/10/28 10:01:58;;;;;;;7.88;4.78;;;34.00;99.90;;;;;;5036665;28;20151;-84
2021/10/28 10:04:26;;;;;;;6.90;5.05;;;34.50;99.90;;;;;;5036015;28;20588;-85
2021/10/28 10:06:52;;;;;;;6.32;4.80;;;34.70;99.90;;;;;;5034139;28;20041;-85
2021/10/28 10:09:20;;;;;;;5.50;4.97;;;34.60;99.90;;;;;;5034041;28;20100;-85
2021/10/28 10:11:47;;;;;;;8.55;5.28;;;36.10;99.90;;;;;;5035138;28;20551;-85
2021/10/28 10:14:13;;;;;;;5.53;4.68;;;37.00;99.90;;;;;;5035811;28;20486;-85
2021/10/28 10:16:39;;;;;;;6.38;4.00;;;36.40;99.90;;;;;;5035856;28;20025;-85
2021/10/28 10:19:05;;;;;;;6.15;5.00;;;37.20;99.90;;;;;;5036260;28;20052;-85
2021/10/28 10:21:38;;;;;;;4.80;4.30;;;36.90;99.90;;;;;;5015675;28;20031;-85
2021/10/28 13:37:41;;;;;;;3.20;2.80;;;32.30;99.90;;;;;;5043853;28;20071;-85
2021/10/28 13:50:03;;;;;;;5.53;3.10;;;30.00;99.90;;;;;;5035272;28;20032;-86
2021/10/28 15:28:14;;;;;;;8.25;4.63;;;22.10;99.90;;;;;;4975565;28;20038;-85
2021/10/28 15:36:25;;;;;;;10.18;7.03;;;23.70;99.90;;;;;;4946951;29;20516;-85
2021/10/28 15:39:13;;;;;;;15.07;8.63;;;23.90;99.90;;;;;;4938064;29;20122;-85
2021/10/28 16:22:00;;;;;;;7.47;4.15;;;21.80;99.90;;;;;;4934326;29;20087;-85
2021/10/28 16:24:33;;;;;;;6.18;4.35;;;21.40;99.90;;;;;;4934198;29;20130;-85
2021/10/28 16:26:59;;;;;;;7.78;4.35;;;21.10;99.90;;;;;;4929459;29;20436;-86
2021/10/28 16:29:26;;;;;;;11.40;4.80;;;20.80;99.90;;;;;;4933861;29;20039;-85
2021/10/28 16:31:52;;;;;;;5.35;4.70;;;20.50;99.90;;;;;;4933401;29;20483;-85
2021/10/28 16:34:18;;;;;;;7.80;4.57;;;20.20;99.90;;;;;;4933097;29;20075;-85
2021/10/28 16:36:45;;;;;;;8.32;4.40;;;19.90;99.90;;;;;;4934146;29;20075;-85
2021/10/28 16:39:13;;;;;;;6.07;4.00;;;19.80;99.90;;;;;;4933883;29;20503;-85
2021/10/28 16:41:47;;;;;;;7.43;4.30;;;19.60;99.90;;;;;;4933060;29;20511;-85
2021/10/28 16:44:15;;;;;;;7.40;3.90;;;19.40;99.90;;;;;;4933556;29;20107;-85
2021/10/28 16:46:41;;;;;;;6.78;4.72;;;19.50;99.90;;;;;;4939663;28;20106;-85
2021/10/28 16:49:09;;;;;;;7.63;4.43;;;19.30;99.90;;;;;;5036389;28;20083;-85
2021/10/28 16:51:35;;;;;;;6.30;4.68;;;19.20;99.90;;;;;;5031688;28;20025;-85
2021/10/28 16:54:02;;;;;;;9.95;6.65;;;18.50;99.90;;;;;;5036544;28;20154;-85
2021/10/28 16:56:28;;;;;;;11.95;7.90;;;18.30;99.90;;;;;;5035995;28;20063;-84
2021/10/28 16:58:53;;;;;;;10.27;6.57;;;18.20;99.90;;;;;;5035812;28;20017;-85
2021/10/28 17:01:20;;;;;;;13.68;6.65;;;18.20;99.90;;;;;;5036663;28;20079;-85
2021/10/28 17:03:45;;;;;;;11.00;6.55;;;18.00;99.90;;;;;;5016544;28;20021;-85
2021/10/28 17:06:15;;;;;;;9.52;6.45;;;18.00;99.90;;;;;;5033688;28;20056;-85
2021/10/28 17:08:41;;;;;;;9.95;6.20;;;17.80;99.90;;;;;;5036262;28;20112;-85
2021/10/28 17:11:07;;;;;;;11.93;6.68;;;17.70;99.90;;;;;;5035103;28;20160;-85
2021/10/28 17:13:33;;;;;;;9.55;7.38;;;17.70;99.90;;;;;;5035124;28;20021;-85
2021/10/28 17:15:59;;;;;;;13.00;7.68;;;17.50;99.90;;;;;;5035522;28;20408;-82
2021/10/28 17:18:25;;;;;;;18.00;7.38;;;17.50;99.90;;;;;;5031564;28;20029;-84
2021/10/28 17:20:51;;;;;;;13.57;7.47;;;17.40;99.90;;;;;;5035416;28;20034;-85
2021/10/28 17:23:18;;;;;;;13.73;7.20;;;17.20;99.90;;;;;;5035575;28;20488;-87
2021/10/28 17:25:51;;;;;;;13.57;7.80;;;17.20;99.90;;;;;;5035055;28;20046;-85
2021/10/28 17:28:17;;;;;;;11.93;7.65;;;17.10;99.90;;;;;;5031270;28;20014;-86
2021/10/28 17:30:43;;;;;;;10.23;8.57;;;17.60;99.90;;;;;;5032274;28;20025;-85
2021/10/28 17:33:08;;;;;;;12.18;8.27;;;17.10;99.90;;;;;;5030961;28;20098;-86
2021/10/28 17:35:34;;;;;;;10.10;7.82;;;17.00;99.90;;;;;;5035492;28;20029;-85
2021/10/28 17:38:01;;;;;;;12.52;7.78;;;17.00;99.90;;;;;;5035066;28;20503;-85
2021/10/28 17:40:27;;;;;;;12.00;7.95;;;17.00;99.90;;;;;;5034664;28;20032;-87
2021/10/28 17:42:55;;;;;;;12.18;8.38;;;16.90;99.90;;;;;;5033369;28;20537;-86
2021/10/28 17:45:25;;;;;;;12.88;9.13;;;16.90;99.90;;;;;;5033727;28;20064;-86
2021/10/28 17:47:52;;;;;;;14.32;8.95;;;16.70;99.90;;;;;;5039471;28;20029;-84
2021/10/28 17:50:18;;;;;;;13.85;9.00;;;16.60;99.90;;;;;;5039596;28;20037;-88
2021/10/28 17:52:44;;;;;;;13.27;9.70;;;16.60;99.90;;;;;;5038841;28;20040;-87
2021/10/28 17:55:10;;;;;;;13.63;9.23;;;16.40;99.90;;;;;;5021941;28;20029;-85
2021/10/28 17:57:37;;;;;;;15.98;9.65;;;16.50;99.90;;;;;;5034932;28;20030;-84
2021/10/28 18:00:05;;;;;;;13.48;9.55;;;16.40;99.90;;;;;;5039250;28;20033;-91
2021/10/28 18:02:31;;;;;;;13.20;9.65;;;16.30;99.90;;;;;;5024655;28;20500;-86
2021/10/28 18:04:56;;;;;;;14.45;10.25;;;16.30;99.90;;;;;;5039039;28;20045;-85
2021/10/28 18:07:22;;;;;;;15.35;11.27;;;16.40;99.90;;;;;;5038456;28;20516;-89
2021/10/28 18:09:48;;;;;;;17.42;11.60;;;16.30;99.90;;;;;;5036449;28;20029;-93
2021/10/28 18:12:14;;;;;;;19.60;12.68;;;16.10;99.90;;;;;;5037675;28;20393;-89
2021/10/28 18:14:40;;;;;;;20.52;13.68;;;16.10;99.90;;;;;;5039308;28;20034;-88
2021/10/28 18:17:08;;;;;;;23.92;16.52;;;16.00;99.90;;;;;;5039545;28;20037;-92
2021/10/28 18:19:34;;;;;;;30.67;21.50;;;16.10;99.90;;;;;;5039105;28;20044;-88
2021/10/28 18:22:00;;;;;;;30.27;19.67;;;16.10;99.90;;;;;;5022117;28;20029;-86
2021/10/28 18:24:26;;;;;;;27.27;18.90;;;16.10;99.90;;;;;;5034996;28;20049;-87
2021/10/28 18:26:53;;;;;;;27.85;18.05;;;16.10;99.90;;;;;;5039119;28;20112;-87
2021/10/28 18:29:20;;;;;;;24.80;16.85;;;15.80;99.90;;;;;;5038993;28;20041;-88
2021/10/28 18:31:46;;;;;;;18.35;13.25;;;15.60;99.90;;;;;;5023898;28;20555;-88
2021/10/28 18:34:12;;;;;;;13.38;11.48;;;15.60;99.90;;;;;;5038188;28;20028;-87
2021/10/28 18:36:38;;;;;;;15.63;11.30;;;15.50;99.90;;;;;;5035146;28;22650;-89
2021/10/28 18:39:08;;;;;;;19.10;11.35;;;15.40;99.90;;;;;;5038171;28;20025;-92
2021/10/28 18:41:34;;;;;;;16.90;10.63;;;15.40;99.90;;;;;;5038352;28;20061;-87
2021/10/28 18:44:00;;;;;;;17.17;12.07;;;15.40;99.90;;;;;;5038601;28;20021;-87
2021/10/28 18:46:26;;;;;;;18.77;13.38;;;15.40;99.90;;;;;;5038271;28;20127;-87
2021/10/28 18:49:00;;;;;;;13.95;9.43;;;15.10;99.90;;;;;;5036139;28;20025;-88
2021/10/28 18:51:26;;;;;;;14.02;9.70;;;14.90;99.90;;;;;;5034494;28;20120;-84
2021/10/28 18:53:53;;;;;;;11.20;8.77;;;14.90;99.90;;;;;;5038600;28;20045;-86
2021/10/28 18:56:19;;;;;;;12.40;9.07;;;15.20;99.90;;;;;;5037422;28;20037;-85
2021/10/28 18:58:46;;;;;;;11.95;9.38;;;14.50;99.90;;;;;;5037443;28;20022;-84
2021/10/28 19:01:16;;;;;;;14.48;9.32;;;14.40;99.90;;;;;;5038127;28;20465;-84
2021/10/28 19:03:43;;;;;;;10.63;9.40;;;14.50;99.90;;;;;;5034914;28;20048;-85
2021/10/28 19:06:10;;;;;;;15.48;9.52;;;14.80;99.90;;;;;;5036480;28;20037;-85
2021/10/28 19:08:38;;;;;;;11.80;9.15;;;14.30;99.90;;;;;;5037013;28;20124;-85
2021/10/28 19:11:05;;;;;;;14.70;9.80;;;14.30;99.90;;;;;;5037869;28;20121;-85
2021/10/28 19:13:32;;;;;;;17.02;10.25;;;14.30;99.90;;;;;;5037434;28;20021;-87
2021/10/28 19:15:58;;;;;;;11.27;9.20;;;14.10;99.90;;;;;;5036668;28;20032;-86
2021/10/28 19:18:24;;;;;;;13.73;10.05;;;14.10;99.90;;;;;;5016712;28;20037;-86
2021/10/28 19:20:50;;;;;;;14.93;9.75;;;13.90;99.90;;;;;;5038572;28;20051;-84
2021/10/28 19:23:15;;;;;;;15.35;10.02;;;13.90;99.90;;;;;;5037385;28;20113;-85
2021/10/28 19:25:41;;;;;;;15.23;10.50;;;13.80;99.90;;;;;;5037701;28;20041;-84
2021/10/28 19:28:08;;;;;;;14.63;10.60;;;13.80;99.90;;;;;;5037681;28;20498;-85
2021/10/28 19:30:38;;;;;;;13.90;10.90;;;13.70;99.90;;;;;;5033046;28;20075;-84
2021/10/28 19:33:10;;;;;;;16.25;11.25;;;13.60;99.90;;;;;;5045645;28;20056;-85
2021/10/28 19:35:39;;;;;;;18.20;11.88;;;13.70;99.90;;;;;;5036294;28;20120;-84
2021/10/28 19:48:34;;;;;;;14.02;11.57;;;13.50;99.90;;;;;;5017608;28;20025;-85
2021/10/28 19:51:00;;;;;;;16.17;11.80;;;13.70;99.90;;;;;;5037347;28;20512;-85
2021/10/28 19:53:26;;;;;;;15.48;11.90;;;13.40;99.90;;;;;;5043345;28;20025;-85
2021/10/28 19:55:52;;;;;;;12.75;11.18;;;13.30;99.90;;;;;;5042941;28;20026;-85
2021/10/28 19:58:24;;;;;;;13.70;10.80;;;13.50;99.90;;;;;;5037888;28;20013;-86
2021/10/28 20:01:02;;;;;;;16.38;11.40;;;13.70;99.90;;;;;;5034850;28;20478;-86
2021/10/28 20:06:24;;;;;;;15.65;11.23;;;13.30;99.90;;;;;;5037455;28;20100;-86
2021/10/28 20:22:14;;;;;;;13.98;10.82;;;13.10;99.90;;;;;;5037034;28;20067;-87
2021/10/28 20:24:40;;;;;;;17.98;11.48;;;13.10;99.90;;;;;;5033233;28;20405;-87
2021/10/28 20:27:06;;;;;;;13.73;11.27;;;13.30;99.90;;;;;;5036681;28;20025;-86
2021/10/28 20:29:31;;;;;;;14.57;10.60;;;13.50;99.90;;;;;;5037175;28;20029;-87
2021/10/28 20:31:57;;;;;;;15.77;11.10;;;13.00;99.90;;;;;;5036945;28;20494;-86
2021/10/28 20:34:47;;;;;;;16.60;11.48;;;13.00;99.90;;;;;;5036715;28;20108;-87
2021/10/28 20:37:13;;;;;;;15.30;10.65;;;12.70;99.90;;;;;;5036585;28;20033;-86
2021/10/28 20:39:42;;;;;;;13.98;10.82;;;12.80;99.90;;;;;;5032861;28;20030;-87
2021/10/28 20:42:11;;;;;;;14.95;10.95;;;12.90;99.90;;;;;;5035779;28;20079;-86
2021/10/28 20:44:37;;;;;;;14.25;10.80;;;13.00;99.90;;;;;;5036058;28;20065;-87
2021/10/28 20:47:03;;;;;;;13.82;11.23;;;13.30;99.90;;;;;;5036256;28;20123;-88
2021/10/28 20:49:29;;;;;;;15.10;10.95;;;13.00;99.90;;;;;;5035706;28;20029;-88
2021/10/28 20:51:56;;;;;;;14.65;11.55;;;12.60;99.90;;;;;;5034424;28;20416;-88
2021/10/28 20:54:22;;;;;;;16.10;10.88;;;13.20;99.90;;;;;;5033146;28;20038;-88
2021/10/28 20:56:52;;;;;;;15.63;11.27;;;12.40;99.90;;;;;;5036984;28;20093;-89
2021/10/28 20:59:19;;;;;;;14.85;11.18;;;12.10;99.90;;;;;;5035675;28;20056;-88
2021/10/28 21:01:46;;;;;;;14.65;11.25;;;12.50;99.90;;;;;;5035371;28;20446;-87
2021/10/28 21:04:13;;;;;;;15.05;11.23;;;12.40;99.90;;;;;;5035202;28;20044;-88
2021/10/28 21:06:39;;;;;;;12.90;10.82;;;12.80;99.90;;;;;;5032108;28;20045;-88
2021/10/28 21:09:05;;;;;;;15.15;10.60;;;13.00;99.90;;;;;;5035810;28;20035;-87
2021/10/28 21:11:35;;;;;;;15.20;11.27;;;12.50;99.90;;;;;;5035677;28;20037;-90
2021/10/28 21:14:01;;;;;;;13.40;11.23;;;13.10;99.90;;;;;;5036107;28;20369;-89
2021/10/28 21:16:27;;;;;;;13.68;11.30;;;12.90;99.90;;;;;;5035884;28;20036;-90
2021/10/28 21:18:52;;;;;;;14.30;11.30;;;12.70;99.90;;;;;;5033292;28;20401;-89
2021/10/28 21:21:18;;;;;;;17.83;13.27;;;12.80;99.90;;;;;;5033244;28;20120;-89
2021/10/28 21:23:45;;;;;;;18.88;12.38;;;12.70;99.90;;;;;;5020305;28;20436;-89
2021/10/28 21:26:11;;;;;;;16.65;12.55;;;12.70;99.90;;;;;;5035679;28;20056;-88
2021/10/28 21:28:37;;;;;;;15.05;11.57;;;13.10;99.90;;;;;;5035284;28;20018;-87
2021/10/28 21:31:03;;;;;;;15.95;11.90;;;12.60;99.90;;;;;;5034651;28;20505;-86
2021/10/28 21:33:28;;;;;;;15.85;12.00;;;12.80;99.90;;;;;;5031313;28;20436;-87
2021/10/28 21:35:54;;;;;;;19.02;13.00;;;12.60;99.90;;;;;;5035430;28;20466;-86
2021/10/28 21:38:20;;;;;;;21.80;15.43;;;13.10;99.90;;;;;;5034978;28;20379;-88
2021/10/28 21:40:45;;;;;;;25.90;16.52;;;12.50;99.90;;;;;;5020916;28;20030;-88
2021/10/28 21:43:12;;;;;;;16.52;12.82;;;12.90;99.90;;;;;;5034323;28;20009;-88
2021/10/28 21:45:38;;;;;;;16.88;13.57;;;12.70;99.90;;;;;;5010575;28;20395;-88
2021/10/28 21:48:06;;;;;;;14.45;11.15;;;12.50;99.90;;;;;;5034541;28;20060;-88
2021/10/28 21:50:34;;;;;;;13.68;9.48;;;12.60;99.90;;;;;;5016357;28;20025;-88
2021/10/28 21:53:06;;;;;;;11.75;9.55;;;12.70;99.90;;;;;;5035442;28;20112;-89
2021/10/28 21:55:56;;;;;;;13.82;9.55;;;12.90;99.90;;;;;;5031274;28;20114;-89
2021/10/28 22:01:18;;;;;;;12.43;9.10;;;12.40;99.90;;;;;;5031347;28;20488;-86
2021/10/28 22:25:52;;;;;;;12.80;8.73;;;12.10;99.90;;;;;;4996056;28;20045;-89
2021/10/28 22:28:17;;;;;;;11.65;7.20;;;12.40;99.90;;;;;;4992304;28;20034;-89